createdAt,value
2018-06-08T00:12:11.413Z,17.90
2018-06-08T01:12:13.700Z,17.40
2018-06-08T01:14:42.007Z,17.40
2018-06-08T01:17:10.303Z,17.50
2018-06-08T01:19:38.679Z,17.40
2018-06-08T01:22:21.656Z,17.50
2018-06-08T01:27:42.714Z,17.40
2018-06-08T01:30:11.029Z,17.30
2018-06-08T01:32:39.367Z,17.30
2018-06-08T01:35:07.633Z,17.30
2018-06-08T01:37:35.932Z,17.30
2018-06-08T01:40:04.237Z,17.20
2018-06-08T01:42:32.533Z,17.20
2018-06-08T01:45:00.841Z,17.10
2018-06-08T01:47:29.097Z,17.10
2018-06-08T01:49:57.362Z,17.10
2018-06-08T01:52:25.628Z,17.10
2018-06-08T01:54:53.913Z,17.00
2018-06-08T01:57:22.181Z,17.00
2018-06-08T01:59:50.451Z,16.90
2018-06-08T02:02:18.716Z,16.80
2018-06-08T02:04:46.999Z,16.70
2018-06-08T02:07:15.262Z,16.70
2018-06-08T02:09:43.534Z,16.70
2018-06-08T02:12:11.805Z,16.70
2018-06-08T02:14:54.028Z,16.60
2018-06-08T02:17:22.317Z,16.60
2018-06-08T02:19:50.602Z,16.60
2018-06-08T03:17:02.529Z,16.60
2018-06-08T03:19:34.045Z,16.60
2018-06-08T03:22:02.341Z,16.60
2018-06-08T03:24:30.649Z,16.70
2018-06-08T03:26:58.959Z,16.70
2018-06-08T03:29:27.272Z,16.70
2018-06-08T03:31:55.591Z,16.70
2018-06-08T03:34:23.880Z,16.70
2018-06-08T03:36:52.194Z,16.70
2018-06-08T03:39:20.496Z,16.80
2018-06-08T03:41:48.816Z,16.70
2018-06-08T03:44:17.145Z,16.70
2018-06-08T03:46:45.449Z,16.70
2018-06-08T03:49:13.717Z,16.70
2018-06-08T03:51:41.989Z,16.70
2018-06-08T03:54:10.307Z,16.70
2018-06-08T03:56:38.583Z,16.70
2018-06-08T03:59:06.833Z,16.70
2018-06-08T04:01:35.060Z,16.80
2018-06-08T04:04:09.762Z,16.80
2018-06-08T04:06:38.041Z,16.80
2018-06-08T04:09:07.763Z,16.70
2018-06-08T04:11:36.101Z,16.80
2018-06-08T04:20:02.529Z,16.90
2018-06-08T04:22:31.183Z,16.90
2018-06-08T04:24:59.472Z,16.90
2018-06-08T04:27:27.761Z,16.90
2018-06-08T04:29:56.077Z,17.00
2018-06-08T04:32:24.369Z,17.00
2018-06-08T04:34:52.648Z,17.00
2018-06-08T04:37:20.928Z,17.10
2018-06-08T04:39:49.240Z,17.20
2018-06-08T04:42:17.532Z,17.30
2018-06-08T04:44:45.829Z,17.30
2018-06-08T04:47:14.137Z,17.50
2018-06-08T04:49:42.437Z,17.50
2018-06-08T04:52:10.688Z,17.60
2018-06-08T04:54:38.965Z,17.70
2018-06-08T04:57:07.237Z,17.70
2018-06-08T04:59:35.514Z,17.80
2018-06-08T05:02:03.806Z,17.80
2018-06-08T05:04:32.089Z,17.90
2018-06-08T05:07:00.384Z,18.00
2018-06-08T05:09:28.672Z,18.00
2018-06-08T05:11:56.941Z,18.10
2018-06-08T05:20:10.653Z,18.20
2018-06-08T05:25:31.952Z,18.40
2018-06-08T05:28:00.247Z,18.40
2018-06-08T05:30:28.556Z,18.50
2018-06-08T05:32:56.860Z,18.50
2018-06-08T05:35:25.156Z,18.50
2018-06-08T05:37:53.453Z,18.60
2018-06-08T05:40:21.744Z,18.60
2018-06-08T05:42:50.056Z,18.70
2018-06-08T05:45:18.376Z,18.70
2018-06-08T05:47:46.711Z,18.80
2018-06-08T05:50:15.017Z,18.90
2018-06-08T05:52:43.316Z,19.00
2018-06-08T05:55:11.578Z,19.10
2018-06-08T05:57:39.854Z,19.30
2018-06-08T06:00:08.114Z,19.30
2018-06-08T06:02:36.380Z,19.40
2018-06-08T06:05:04.653Z,19.50
2018-06-08T06:07:32.912Z,19.60
2018-06-08T06:10:01.186Z,19.60
2018-06-08T06:12:29.477Z,19.80
2018-06-08T06:17:50.640Z,19.90
2018-06-08T07:14:41.888Z,21.90
2018-06-08T07:25:58.780Z,22.20
2018-06-08T07:28:27.102Z,22.30
2018-06-08T07:30:55.407Z,22.40
2018-06-08T07:33:23.700Z,22.50
2018-06-08T07:35:51.992Z,22.60
2018-06-08T07:38:20.278Z,22.80
2018-06-08T07:40:48.589Z,22.90
2018-06-08T07:43:16.864Z,23.00
2018-06-08T07:45:45.168Z,23.10
2018-06-08T07:48:13.475Z,23.30
2018-06-08T07:50:41.756Z,23.40
2018-06-08T07:53:10.041Z,23.60
2018-06-08T07:55:38.361Z,23.70
2018-06-08T07:58:06.624Z,23.80
2018-06-08T08:00:34.895Z,23.80
2018-06-08T08:03:03.153Z,24.00
2018-06-08T08:05:31.416Z,24.10
2018-06-08T08:07:59.675Z,24.20
2018-06-08T08:10:27.964Z,24.50
2018-06-08T08:12:56.220Z,24.70
2018-06-08T08:15:24.528Z,24.90
2018-06-08T08:17:52.814Z,24.90
2018-06-08T08:20:39.189Z,24.90
2018-06-08T08:26:00.055Z,25.10
2018-06-08T08:28:28.322Z,25.30
2018-06-08T08:30:56.577Z,25.30
2018-06-08T08:33:24.829Z,25.50
2018-06-08T08:35:53.110Z,25.60
2018-06-08T08:38:21.382Z,25.60
2018-06-08T08:40:49.631Z,25.80
2018-06-08T08:43:17.864Z,26.10
2018-06-08T08:45:46.139Z,26.20
2018-06-08T08:48:14.359Z,26.40
2018-06-08T08:50:42.609Z,26.30
2018-06-08T08:53:10.869Z,26.30
2018-06-08T08:55:39.126Z,26.60
2018-06-08T08:58:07.410Z,26.70
2018-06-08T09:00:35.658Z,26.90
2018-06-08T09:03:03.936Z,26.90
2018-06-08T09:05:32.176Z,27.00
2018-06-08T09:08:00.432Z,26.90
2018-06-08T09:10:28.688Z,26.90
2018-06-08T09:12:56.937Z,26.90
2018-06-08T09:18:17.892Z,27.10
2018-06-08T09:20:46.221Z,27.10
2018-06-08T10:14:54.563Z,28.20
2018-06-08T10:17:22.874Z,28.60
2018-06-08T10:22:43.780Z,29.00
2018-06-08T10:25:26.216Z,29.20
2018-06-08T10:27:54.528Z,29.40
2018-06-08T10:30:22.836Z,29.50
2018-06-08T10:32:51.134Z,29.60
2018-06-08T10:35:19.432Z,29.90
2018-06-08T10:37:47.735Z,30.50
2018-06-08T10:40:16.036Z,30.50
2018-06-08T10:42:44.308Z,30.80
2018-06-08T10:45:12.600Z,31.10
2018-06-08T10:47:40.909Z,31.10
2018-06-08T10:50:09.149Z,31.00
2018-06-08T10:52:37.395Z,31.30
2018-06-08T10:55:05.672Z,31.40
2018-06-08T10:57:33.955Z,31.80
2018-06-08T11:00:02.232Z,31.60
2018-06-08T11:02:30.485Z,32.10
2018-06-08T11:04:58.753Z,32.40
2018-06-08T11:07:27.020Z,32.40
2018-06-08T11:09:55.279Z,32.50
2018-06-08T11:12:23.522Z,32.10
2018-06-08T11:23:50.304Z,32.30
2018-06-08T11:26:18.644Z,31.90
2018-06-08T11:28:46.936Z,31.40
2018-06-08T11:31:15.244Z,31.10
2018-06-08T11:33:43.525Z,31.10
2018-06-08T11:36:11.799Z,31.40
2018-06-08T11:38:40.085Z,32.00
2018-06-08T11:41:08.389Z,32.40
2018-06-08T11:43:36.696Z,32.10
2018-06-08T11:46:05.341Z,31.70
2018-06-08T11:48:33.645Z,31.50
2018-06-08T11:51:01.937Z,31.50
2018-06-08T11:53:30.241Z,31.70
2018-06-08T11:55:58.512Z,32.10
2018-06-08T11:58:26.788Z,31.60
2018-06-08T12:00:55.047Z,31.40
2018-06-08T12:03:23.328Z,31.50
2018-06-08T12:05:51.603Z,32.10
2018-06-08T12:28:44.608Z,33.10
2018-06-08T12:31:13.335Z,33.60
2018-06-08T12:33:41.980Z,33.40
2018-06-08T12:36:10.447Z,32.90
2018-06-08T12:38:38.832Z,32.80
2018-06-08T12:41:07.145Z,32.70
2018-06-08T12:43:35.454Z,32.30
2018-06-08T12:46:03.724Z,32.30
2018-06-08T12:48:32.004Z,32.40
2018-06-08T12:51:00.281Z,32.70
2018-06-08T12:53:29.299Z,32.60
2018-06-08T12:55:58.285Z,32.80
2018-06-08T12:58:27.178Z,32.80
2018-06-08T13:00:56.158Z,32.50
2018-06-08T13:03:24.438Z,32.30
2018-06-08T13:05:52.696Z,32.40
2018-06-08T13:08:20.957Z,32.40
2018-06-08T13:10:49.229Z,32.50
2018-06-08T13:16:14.371Z,32.80
2018-06-08T13:24:28.140Z,32.70
2018-06-08T13:26:56.441Z,32.60
2018-06-08T13:29:24.795Z,32.80
2018-06-08T13:31:53.077Z,33.00
2018-06-08T13:34:21.407Z,33.20
2018-06-08T13:36:49.727Z,33.00
2018-06-08T13:39:18.044Z,33.60
2018-06-08T13:41:46.438Z,33.20
2018-06-08T13:44:14.773Z,33.60
2018-06-08T13:46:46.854Z,33.50
2018-06-08T13:49:15.188Z,33.20
2018-06-08T13:51:43.499Z,33.50
2018-06-08T13:54:11.819Z,33.50
2018-06-08T13:56:40.098Z,33.20
2018-06-08T13:59:08.365Z,32.90
2018-06-08T14:01:36.637Z,32.70
2018-06-08T14:04:04.918Z,32.70
2018-06-08T14:06:33.222Z,32.90
2018-06-08T14:09:01.499Z,33.10
2018-06-08T14:11:29.793Z,33.50
2018-06-08T14:13:58.082Z,33.20
2018-06-08T14:16:26.380Z,33.40
2018-06-08T14:19:42.909Z,33.10
2018-06-08T15:13:51.081Z,30.70
2018-06-08T16:14:04.881Z,31.40
2018-06-08T16:19:26.305Z,31.20
2018-06-08T16:27:39.896Z,31.00
2018-06-08T16:30:08.234Z,31.00
2018-06-08T16:32:36.541Z,30.90
2018-06-08T16:35:04.877Z,30.70
2018-06-08T16:37:33.182Z,30.70
2018-06-08T16:40:01.505Z,30.40
2018-06-08T16:42:29.805Z,30.30
2018-06-08T16:44:58.142Z,30.30
2018-06-08T16:47:26.466Z,30.20
2018-06-08T16:49:55.417Z,29.80
2018-06-08T16:52:24.714Z,29.70
2018-06-08T16:54:53.019Z,29.50
2018-06-08T16:57:21.334Z,29.50
2018-06-08T16:59:49.605Z,29.40
2018-06-08T17:02:17.889Z,29.20
2018-06-08T17:04:46.155Z,29.00
2018-06-08T17:07:14.451Z,28.90
2018-06-08T17:09:42.730Z,28.90
2018-06-08T17:12:12.037Z,28.70
2018-06-08T17:14:43.589Z,28.50
2018-06-08T17:17:11.857Z,28.50
2018-06-08T17:20:49.219Z,28.30
2018-06-08T17:26:10.850Z,27.90
2018-06-08T17:28:39.174Z,27.60
2018-06-08T17:31:07.535Z,27.50
2018-06-08T17:33:35.861Z,27.40
2018-06-08T17:36:04.162Z,27.20
2018-06-08T17:38:32.442Z,27.20
2018-06-08T17:41:00.735Z,27.10
2018-06-08T17:43:29.023Z,27.00
2018-06-08T17:45:57.306Z,26.90
2018-06-08T17:48:25.581Z,26.80
2018-06-08T17:50:53.893Z,26.80
2018-06-08T17:53:22.170Z,26.60
2018-06-08T17:55:50.506Z,26.50
2018-06-08T17:58:18.793Z,26.40
2018-06-08T18:00:47.072Z,26.30
2018-06-08T18:03:15.354Z,26.20
2018-06-08T18:05:43.631Z,26.10
2018-06-08T18:08:11.925Z,26.00
2018-06-08T18:10:40.277Z,25.90
2018-06-08T18:13:08.713Z,25.70
2018-06-08T18:15:36.984Z,25.60
2018-06-08T18:18:05.283Z,25.60
2018-06-08T18:23:26.704Z,25.30
2018-06-08T18:25:54.977Z,25.20
2018-06-08T18:28:23.259Z,25.10
2018-06-08T18:30:51.521Z,25.00
2018-06-08T18:33:19.938Z,24.90
2018-06-08T18:35:49.007Z,24.70
2018-06-08T18:38:17.280Z,24.50
2018-06-08T18:40:45.569Z,24.40
2018-06-08T18:43:13.842Z,24.20
2018-06-08T18:45:42.101Z,24.10
2018-06-08T18:48:10.500Z,24.00
2018-06-08T18:50:38.897Z,23.90
2018-06-08T18:53:07.169Z,23.80
2018-06-08T18:55:35.444Z,23.70
2018-06-08T18:58:03.737Z,23.60
2018-06-08T19:00:32.015Z,23.50
2018-06-08T19:03:00.303Z,23.40
2018-06-08T19:05:28.589Z,23.30
2018-06-08T19:07:56.860Z,23.20
2018-06-08T19:10:25.141Z,23.10
2018-06-08T19:13:34.175Z,23.00
2018-06-08T19:18:58.326Z,22.80
2018-06-08T19:27:11.957Z,22.50
2018-06-08T19:29:40.316Z,22.50
2018-06-08T19:32:08.613Z,22.30
2018-06-08T19:34:36.928Z,22.20
2018-06-08T19:37:05.237Z,22.10
2018-06-08T19:39:33.526Z,22.00
2018-06-08T19:42:01.866Z,22.00
2018-06-08T19:44:30.204Z,21.90
2018-06-08T19:46:58.461Z,21.80
2018-06-08T19:49:26.759Z,21.80
2018-06-08T19:51:55.077Z,21.70
2018-06-08T19:54:23.380Z,21.60
2018-06-08T19:56:51.677Z,21.50
2018-06-08T19:59:19.934Z,21.50
2018-06-08T20:01:48.213Z,21.40
2018-06-08T20:04:16.493Z,21.30
2018-06-08T20:06:44.771Z,21.20
2018-06-08T20:09:13.050Z,21.20
2018-06-08T20:11:41.342Z,21.10
2018-06-08T20:14:09.613Z,21.00
2018-06-08T20:16:37.914Z,20.90
2018-06-08T20:21:58.589Z,20.80
2018-06-08T20:24:26.869Z,20.80
2018-06-08T20:26:55.139Z,20.70
2018-06-08T20:29:23.424Z,20.60
2018-06-08T20:31:51.705Z,20.50
2018-06-08T20:34:19.981Z,20.40
2018-06-08T20:36:48.265Z,20.40
2018-06-08T20:39:16.538Z,20.30
2018-06-08T20:41:44.826Z,20.20
2018-06-08T20:44:13.121Z,20.20
2018-06-08T20:46:41.397Z,20.20
2018-06-08T20:49:09.668Z,20.20
2018-06-08T20:51:37.945Z,20.20
2018-06-08T20:54:06.527Z,20.10
2018-06-08T20:56:34.786Z,20.10
2018-06-08T20:59:03.076Z,20.10
2018-06-08T21:01:31.369Z,20.10
2018-06-08T21:03:59.665Z,20.20
2018-06-08T21:06:28.726Z,20.10
2018-06-08T21:08:58.264Z,20.20
2018-06-08T21:11:26.558Z,20.20
2018-06-08T21:14:06.976Z,20.10
2018-06-08T21:16:35.281Z,20.10
2018-06-08T21:19:03.550Z,20.00
2018-06-08T21:21:31.863Z,19.90
2018-06-08T22:24:17.661Z,18.60
2018-06-08T22:26:45.992Z,18.60
2018-06-08T22:29:14.310Z,18.50
2018-06-08T22:31:42.617Z,18.50
2018-06-08T22:34:10.940Z,18.50
2018-06-08T22:36:39.257Z,18.50
2018-06-08T22:39:07.601Z,18.40
2018-06-08T22:41:35.910Z,18.40
2018-06-08T22:44:04.218Z,18.40
2018-06-08T22:46:32.531Z,18.30
2018-06-08T22:49:00.882Z,18.40
2018-06-08T22:51:29.189Z,18.60
2018-06-08T22:53:57.490Z,18.60
2018-06-08T22:56:25.757Z,18.50
2018-06-08T22:58:54.050Z,18.50
2018-06-08T23:01:22.355Z,18.30
2018-06-08T23:03:50.613Z,18.20
2018-06-08T23:06:18.901Z,18.30
2018-06-08T23:08:47.185Z,18.20
2018-06-08T23:11:15.486Z,18.20
2018-06-08T23:13:43.749Z,18.00
2018-06-08T23:21:57.706Z,17.90
2018-06-08T23:24:26.005Z,17.90
2018-06-08T23:26:54.300Z,17.90
2018-06-08T23:29:22.585Z,17.90
2018-06-08T23:31:50.873Z,18.10
2018-06-08T23:34:19.145Z,18.00
2018-06-08T23:36:47.393Z,17.90
2018-06-08T23:39:15.649Z,17.80
2018-06-08T23:41:43.939Z,17.80
2018-06-08T23:44:12.219Z,17.80
2018-06-08T23:46:40.509Z,17.80
2018-06-08T23:49:08.761Z,17.90
2018-06-08T23:51:37.056Z,17.90
2018-06-08T23:54:05.321Z,17.90
2018-06-08T23:56:33.586Z,17.80
2018-06-08T23:59:01.861Z,17.80
